sensor_id;sensor_type;location;lat;lon;timestamp;P1;durP1;ratioP1;P2;durP2;ratioP2
78895;SDS011;68284;59.124;37.910;2023-06-14T00:02:05;3.15;;;2.17;;
78895;SDS011;68284;59.124;37.910;2023-06-14T00:04:34;2.00;;;1.80;;
78895;SDS011;68284;59.124;37.910;2023-06-14T00:07:22;2.80;;;1.95;;
78895;SDS011;68284;59.124;37.910;2023-06-14T00:10:22;5.65;;;2.10;;
78895;SDS011;68284;59.124;37.910;2023-06-14T00:13:06;4.80;;;2.03;;
78895;SDS011;68284;59.124;37.910;2023-06-14T00:15:36;5.32;;;2.05;;
78895;SDS011;68284;59.124;37.910;2023-06-14T00:18:02;3.30;;;1.88;;
78895;SDS011;68284;59.124;37.910;2023-06-14T00:20:30;3.35;;;2.13;;
78895;SDS011;68284;59.124;37.910;2023-06-14T00:23:17;2.33;;;1.90;;
78895;SDS011;68284;59.124;37.910;2023-06-14T00:28:30;3.67;;;2.28;;
78895;SDS011;68284;59.124;37.910;2023-06-14T00:30:56;2.67;;;2.00;;
78895;SDS011;68284;59.124;37.910;2023-06-14T00:33:23;2.95;;;2.00;;
78895;SDS011;68284;59.124;37.910;2023-06-14T00:35:50;2.40;;;2.10;;
78895;SDS011;68284;59.124;37.910;2023-06-14T00:38:20;2.55;;;2.00;;
78895;SDS011;68284;59.124;37.910;2023-06-14T00:40:46;4.38;;;1.75;;
78895;SDS011;68284;59.124;37.910;2023-06-14T00:43:13;4.43;;;2.13;;
78895;SDS011;68284;59.124;37.910;2023-06-14T00:45:39;2.15;;;1.75;;
78895;SDS011;68284;59.124;37.910;2023-06-14T00:48:06;2.60;;;2.10;;
78895;SDS011;68284;59.124;37.910;2023-06-14T00:50:33;2.53;;;2.15;;
78895;SDS011;68284;59.124;37.910;2023-06-14T00:53:00;2.85;;;2.30;;
78895;SDS011;68284;59.124;37.910;2023-06-14T00:55:27;3.42;;;2.33;;
78895;SDS011;68284;59.124;37.910;2023-06-14T00:57:55;4.07;;;1.90;;
78895;SDS011;68284;59.124;37.910;2023-06-14T01:00:22;2.20;;;2.00;;
78895;SDS011;68284;59.124;37.910;2023-06-14T01:03:07;3.10;;;1.63;;
78895;SDS011;68284;59.124;37.910;2023-06-14T01:08:24;2.13;;;1.83;;
78895;SDS011;68284;59.124;37.910;2023-06-14T01:14:25;2.38;;;1.90;;
78895;SDS011;68284;59.124;37.910;2023-06-14T01:17:17;2.97;;;2.10;;
78895;SDS011;68284;59.124;37.910;2023-06-14T01:19:43;2.05;;;1.88;;
78895;SDS011;68284;59.124;37.910;2023-06-14T01:22:14;3.63;;;2.20;;
78895;SDS011;68284;59.124;37.910;2023-06-14T01:25:00;2.65;;;2.30;;
78895;SDS011;68284;59.124;37.910;2023-06-14T01:27:26;2.58;;;1.95;;
78895;SDS011;68284;59.124;37.910;2023-06-14T01:29:55;3.85;;;2.00;;
78895;SDS011;68284;59.124;37.910;2023-06-14T01:32:28;3.28;;;1.85;;
78895;SDS011;68284;59.124;37.910;2023-06-14T01:34:55;4.30;;;2.05;;
78895;SDS011;68284;59.124;37.910;2023-06-14T01:37:22;2.05;;;1.83;;
78895;SDS011;68284;59.124;37.910;2023-06-14T01:39:48;3.47;;;1.77;;
78895;SDS011;68284;59.124;37.910;2023-06-14T01:42:18;2.17;;;1.80;;
78895;SDS011;68284;59.124;37.910;2023-06-14T01:44:45;3.95;;;2.10;;
78895;SDS011;68284;59.124;37.910;2023-06-14T01:47:13;2.30;;;1.90;;
78895;SDS011;68284;59.124;37.910;2023-06-14T01:49:59;2.88;;;1.90;;
78895;SDS011;68284;59.124;37.910;2023-06-14T01:52:44;2.30;;;1.75;;
78895;SDS011;68284;59.124;37.910;2023-06-14T01:55:10;3.08;;;1.92;;
78895;SDS011;68284;59.124;37.910;2023-06-14T01:57:40;2.50;;;1.90;;
78895;SDS011;68284;59.124;37.910;2023-06-14T02:00:07;2.80;;;1.80;;
78895;SDS011;68284;59.124;37.910;2023-06-14T02:02:41;3.97;;;2.17;;
78895;SDS011;68284;59.124;37.910;2023-06-14T02:05:07;4.05;;;2.20;;
78895;SDS011;68284;59.124;37.910;2023-06-14T02:07:34;3.15;;;2.00;;
78895;SDS011;68284;59.124;37.910;2023-06-14T02:12:47;3.20;;;1.63;;
78895;SDS011;68284;59.124;37.910;2023-06-14T02:15:13;1.88;;;1.60;;
78895;SDS011;68284;59.124;37.910;2023-06-14T02:18:00;2.75;;;1.85;;
78895;SDS011;68284;59.124;37.910;2023-06-14T02:20:32;3.00;;;1.83;;
78895;SDS011;68284;59.124;37.910;2023-06-14T02:22:59;4.63;;;1.85;;
78895;SDS011;68284;59.124;37.910;2023-06-14T02:25:25;4.05;;;1.80;;
78895;SDS011;68284;59.124;37.910;2023-06-14T02:27:54;1.92;;;1.77;;
78895;SDS011;68284;59.124;37.910;2023-06-14T02:30:21;3.15;;;1.88;;
78895;SDS011;68284;59.124;37.910;2023-06-14T02:32:47;2.05;;;1.75;;
78895;SDS011;68284;59.124;37.910;2023-06-14T02:35:14;3.15;;;1.83;;
78895;SDS011;68284;59.124;37.910;2023-06-14T02:43:47;2.17;;;1.92;;
78895;SDS011;68284;59.124;37.910;2023-06-14T02:46:32;6.00;;;2.35;;
78895;SDS011;68284;59.124;37.910;2023-06-14T02:49:18;7.40;;;2.30;;
78895;SDS011;68284;59.124;37.910;2023-06-14T02:51:44;5.43;;;2.38;;
78895;SDS011;68284;59.124;37.910;2023-06-14T02:54:10;6.85;;;2.97;;
78895;SDS011;68284;59.124;37.910;2023-06-14T02:59:22;7.65;;;3.00;;
78895;SDS011;68284;59.124;37.910;2023-06-14T03:01:52;13.77;;;3.22;;
78895;SDS011;68284;59.124;37.910;2023-06-14T03:04:18;8.20;;;2.80;;
78895;SDS011;68284;59.124;37.910;2023-06-14T03:06:45;9.13;;;2.97;;
78895;SDS011;68284;59.124;37.910;2023-06-14T03:09:39;9.73;;;3.13;;
78895;SDS011;68284;59.124;37.910;2023-06-14T03:12:07;7.88;;;3.33;;
78895;SDS011;68284;59.124;37.910;2023-06-14T03:14:35;14.05;;;3.85;;
78895;SDS011;68284;59.124;37.910;2023-06-14T03:17:04;10.88;;;3.53;;
78895;SDS011;68284;59.124;37.910;2023-06-14T03:19:33;14.98;;;4.25;;
78895;SDS011;68284;59.124;37.910;2023-06-14T03:21:59;8.07;;;3.65;;
78895;SDS011;68284;59.124;37.910;2023-06-14T03:24:44;11.95;;;3.63;;
78895;SDS011;68284;59.124;37.910;2023-06-14T03:27:14;15.30;;;3.83;;
78895;SDS011;68284;59.124;37.910;2023-06-14T03:30:00;8.45;;;3.90;;
78895;SDS011;68284;59.124;37.910;2023-06-14T03:32:27;8.98;;;2.92;;
78895;SDS011;68284;59.124;37.910;2023-06-14T03:34:53;14.93;;;3.10;;
78895;SDS011;68284;59.124;37.910;2023-06-14T03:37:23;13.90;;;3.80;;
78895;SDS011;68284;59.124;37.910;2023-06-14T03:39:50;13.93;;;3.25;;
78895;SDS011;68284;59.124;37.910;2023-06-14T03:45:24;17.42;;;4.07;;
78895;SDS011;68284;59.124;37.910;2023-06-14T03:48:10;16.02;;;5.15;;
78895;SDS011;68284;59.124;37.910;2023-06-14T03:50:56;21.02;;;4.68;;
78895;SDS011;68284;59.124;37.910;2023-06-14T03:53:22;15.68;;;4.05;;
78895;SDS011;68284;59.124;37.910;2023-06-14T03:55:51;15.70;;;4.85;;
78895;SDS011;68284;59.124;37.910;2023-06-14T03:58:25;21.90;;;5.32;;
78895;SDS011;68284;59.124;37.910;2023-06-14T04:00:51;17.65;;;4.22;;
78895;SDS011;68284;59.124;37.910;2023-06-14T04:03:38;16.73;;;4.50;;
78895;SDS011;68284;59.124;37.910;2023-06-14T04:06:06;21.67;;;4.75;;
78895;SDS011;68284;59.124;37.910;2023-06-14T04:08:51;21.38;;;4.80;;
78895;SDS011;68284;59.124;37.910;2023-06-14T04:11:18;22.00;;;4.90;;
78895;SDS011;68284;59.124;37.910;2023-06-14T04:13:45;18.67;;;5.00;;
78895;SDS011;68284;59.124;37.910;2023-06-14T04:16:13;25.80;;;5.72;;
78895;SDS011;68284;59.124;37.910;2023-06-14T04:18:39;25.85;;;6.80;;
78895;SDS011;68284;59.124;37.910;2023-06-14T04:21:24;29.45;;;6.82;;
78895;SDS011;68284;59.124;37.910;2023-06-14T04:23:55;26.75;;;9.57;;
78895;SDS011;68284;59.124;37.910;2023-06-14T04:29:32;30.88;;;7.32;;
78895;SDS011;68284;59.124;37.910;2023-06-14T04:32:04;31.27;;;6.72;;
78895;SDS011;68284;59.124;37.910;2023-06-14T04:35:11;19.55;;;6.53;;
78895;SDS011;68284;59.124;37.910;2023-06-14T04:37:40;9.93;;;3.90;;
78895;SDS011;68284;59.124;37.910;2023-06-14T04:40:09;13.15;;;3.30;;
78895;SDS011;68284;59.124;37.910;2023-06-14T04:42:37;8.55;;;3.83;;
78895;SDS011;68284;59.124;37.910;2023-06-14T04:45:24;16.02;;;4.25;;
78895;SDS011;68284;59.124;37.910;2023-06-14T04:47:59;12.80;;;3.90;;
78895;SDS011;68284;59.124;37.910;2023-06-14T04:50:27;9.00;;;3.75;;
78895;SDS011;68284;59.124;37.910;2023-06-14T04:52:56;12.10;;;3.72;;
78895;SDS011;68284;59.124;37.910;2023-06-14T04:55:26;12.73;;;3.85;;
78895;SDS011;68284;59.124;37.910;2023-06-14T04:57:53;8.75;;;3.92;;
78895;SDS011;68284;59.124;37.910;2023-06-14T05:00:21;9.52;;;3.22;;
78895;SDS011;68284;59.124;37.910;2023-06-14T05:02:49;8.52;;;3.03;;
78895;SDS011;68284;59.124;37.910;2023-06-14T05:08:00;10.82;;;3.58;;
78895;SDS011;68284;59.124;37.910;2023-06-14T05:10:27;13.40;;;3.90;;
78895;SDS011;68284;59.124;37.910;2023-06-14T05:12:53;13.10;;;4.43;;
78895;SDS011;68284;59.124;37.910;2023-06-14T05:15:20;16.33;;;4.88;;
78895;SDS011;68284;59.124;37.910;2023-06-14T05:17:51;12.55;;;4.75;;
78895;SDS011;68284;59.124;37.910;2023-06-14T05:23:07;14.70;;;4.88;;
78895;SDS011;68284;59.124;37.910;2023-06-14T05:25:34;20.75;;;5.93;;
78895;SDS011;68284;59.124;37.910;2023-06-14T05:28:01;20.90;;;7.38;;
78895;SDS011;68284;59.124;37.910;2023-06-14T05:30:28;20.45;;;7.43;;
78895;SDS011;68284;59.124;37.910;2023-06-14T05:32:56;24.20;;;8.48;;
78895;SDS011;68284;59.124;37.910;2023-06-14T05:35:23;15.85;;;6.60;;
78895;SDS011;68284;59.124;37.910;2023-06-14T05:37:49;20.17;;;7.55;;
78895;SDS011;68284;59.124;37.910;2023-06-14T05:40:52;20.50;;;7.93;;
78895;SDS011;68284;59.124;37.910;2023-06-14T05:46:23;16.15;;;8.32;;
78895;SDS011;68284;59.124;37.910;2023-06-14T05:48:51;20.33;;;8.30;;
78895;SDS011;68284;59.124;37.910;2023-06-14T05:51:38;22.58;;;7.10;;
78895;SDS011;68284;59.124;37.910;2023-06-14T05:54:04;37.47;;;11.90;;
78895;SDS011;68284;59.124;37.910;2023-06-14T05:56:31;40.83;;;15.65;;
78895;SDS011;68284;59.124;37.910;2023-06-14T05:58:57;38.85;;;14.60;;
78895;SDS011;68284;59.124;37.910;2023-06-14T06:01:42;29.58;;;11.27;;
78895;SDS011;68284;59.124;37.910;2023-06-14T06:04:09;39.72;;;13.45;;
78895;SDS011;68284;59.124;37.910;2023-06-14T06:09:20;34.10;;;13.02;;
78895;SDS011;68284;59.124;37.910;2023-06-14T06:11:46;28.77;;;10.10;;
78895;SDS011;68284;59.124;37.910;2023-06-14T06:14:13;21.65;;;9.70;;
78895;SDS011;68284;59.124;37.910;2023-06-14T06:19:42;17.23;;;6.80;;
78895;SDS011;68284;59.124;37.910;2023-06-14T06:22:28;18.23;;;6.35;;
78895;SDS011;68284;59.124;37.910;2023-06-14T06:24:54;15.07;;;6.78;;
78895;SDS011;68284;59.124;37.910;2023-06-14T06:27:39;16.48;;;5.95;;
78895;SDS011;68284;59.124;37.910;2023-06-14T06:30:25;14.23;;;5.97;;
78895;SDS011;68284;59.124;37.910;2023-06-14T06:32:51;15.57;;;6.68;;
78895;SDS011;68284;59.124;37.910;2023-06-14T06:35:19;18.60;;;7.68;;
78895;SDS011;68284;59.124;37.910;2023-06-14T06:38:03;18.88;;;7.53;;
78895;SDS011;68284;59.124;37.910;2023-06-14T06:40:30;26.88;;;10.00;;
78895;SDS011;68284;59.124;37.910;2023-06-14T06:42:56;26.15;;;11.00;;
78895;SDS011;68284;59.124;37.910;2023-06-14T06:45:26;22.38;;;11.75;;
78895;SDS011;68284;59.124;37.910;2023-06-14T06:47:53;27.20;;;11.75;;
78895;SDS011;68284;59.124;37.910;2023-06-14T06:50:19;21.65;;;10.18;;
78895;SDS011;68284;59.124;37.910;2023-06-14T06:52:45;13.30;;;6.93;;
78895;SDS011;68284;59.124;37.910;2023-06-14T06:55:30;15.80;;;7.43;;
78895;SDS011;68284;59.124;37.910;2023-06-14T06:57:57;13.55;;;7.10;;
78895;SDS011;68284;59.124;37.910;2023-06-14T07:00:23;22.58;;;7.72;;
78895;SDS011;68284;59.124;37.910;2023-06-14T07:02:50;8.55;;;5.10;;
78895;SDS011;68284;59.124;37.910;2023-06-14T07:05:16;14.27;;;4.90;;
78895;SDS011;68284;59.124;37.910;2023-06-14T07:07:43;12.32;;;6.43;;
78895;SDS011;68284;59.124;37.910;2023-06-14T07:10:09;8.15;;;4.75;;
78895;SDS011;68284;59.124;37.910;2023-06-14T07:12:36;4.13;;;2.78;;
78895;SDS011;68284;59.124;37.910;2023-06-14T07:15:08;5.72;;;3.22;;
78895;SDS011;68284;59.124;37.910;2023-06-14T07:17:35;7.53;;;4.13;;
78895;SDS011;68284;59.124;37.910;2023-06-14T07:20:02;7.22;;;3.53;;
78895;SDS011;68284;59.124;37.910;2023-06-14T07:25:18;8.95;;;3.92;;
78895;SDS011;68284;59.124;37.910;2023-06-14T07:27:46;7.15;;;4.20;;
78895;SDS011;68284;59.124;37.910;2023-06-14T07:30:13;5.43;;;3.10;;
78895;SDS011;68284;59.124;37.910;2023-06-14T07:32:39;3.97;;;2.72;;
78895;SDS011;68284;59.124;37.910;2023-06-14T07:35:06;6.32;;;2.88;;
78895;SDS011;68284;59.124;37.910;2023-06-14T07:37:51;5.10;;;3.00;;
78895;SDS011;68284;59.124;37.910;2023-06-14T07:40:18;4.95;;;2.65;;
78895;SDS011;68284;59.124;37.910;2023-06-14T07:42:44;7.07;;;2.83;;
78895;SDS011;68284;59.124;37.910;2023-06-14T07:45:12;3.10;;;2.50;;
78895;SDS011;68284;59.124;37.910;2023-06-14T07:47:40;4.63;;;2.53;;
78895;SDS011;68284;59.124;37.910;2023-06-14T07:50:06;5.78;;;3.00;;
78895;SDS011;68284;59.124;37.910;2023-06-14T07:52:51;3.97;;;2.33;;
78895;SDS011;68284;59.124;37.910;2023-06-14T07:55:37;9.48;;;3.88;;
78895;SDS011;68284;59.124;37.910;2023-06-14T07:58:21;4.05;;;2.72;;
78895;SDS011;68284;59.124;37.910;2023-06-14T08:03:33;4.72;;;2.92;;
78895;SDS011;68284;59.124;37.910;2023-06-14T08:06:00;5.68;;;3.22;;
78895;SDS011;68284;59.124;37.910;2023-06-14T08:08:27;5.82;;;2.88;;
78895;SDS011;68284;59.124;37.910;2023-06-14T08:11:12;3.20;;;2.75;;
78895;SDS011;68284;59.124;37.910;2023-06-14T08:13:38;6.13;;;3.20;;
78895;SDS011;68284;59.124;37.910;2023-06-14T08:16:06;5.18;;;3.20;;
78895;SDS011;68284;59.124;37.910;2023-06-14T08:18:51;5.80;;;3.38;;
78895;SDS011;68284;59.124;37.910;2023-06-14T08:21:36;5.57;;;2.90;;
78895;SDS011;68284;59.124;37.910;2023-06-14T08:24:03;3.10;;;2.80;;
78895;SDS011;68284;59.124;37.910;2023-06-14T08:26:30;5.45;;;3.38;;
78895;SDS011;68284;59.124;37.910;2023-06-14T08:28:58;4.00;;;3.40;;
78895;SDS011;68284;59.124;37.910;2023-06-14T08:31:24;17.23;;;9.45;;
78895;SDS011;68284;59.124;37.910;2023-06-14T08:34:09;6.43;;;3.95;;
78895;SDS011;68284;59.124;37.910;2023-06-14T08:36:54;5.18;;;3.13;;
78895;SDS011;68284;59.124;37.910;2023-06-14T08:39:20;8.95;;;5.18;;
78895;SDS011;68284;59.124;37.910;2023-06-14T08:42:06;6.43;;;4.10;;
78895;SDS011;68284;59.124;37.910;2023-06-14T08:44:34;11.65;;;5.40;;
78895;SDS011;68284;59.124;37.910;2023-06-14T08:47:00;7.05;;;4.05;;
78895;SDS011;68284;59.124;37.910;2023-06-14T08:49:29;8.68;;;3.22;;
78895;SDS011;68284;59.124;37.910;2023-06-14T08:51:57;6.72;;;4.05;;
78895;SDS011;68284;59.124;37.910;2023-06-14T08:54:43;11.55;;;5.10;;
78895;SDS011;68284;59.124;37.910;2023-06-14T08:57:29;10.20;;;4.43;;
78895;SDS011;68284;59.124;37.910;2023-06-14T08:59:56;8.15;;;4.10;;
78895;SDS011;68284;59.124;37.910;2023-06-14T09:02:41;6.35;;;3.45;;
78895;SDS011;68284;59.124;37.910;2023-06-14T09:05:10;4.10;;;3.13;;
78895;SDS011;68284;59.124;37.910;2023-06-14T09:07:37;5.78;;;3.03;;
78895;SDS011;68284;59.124;37.910;2023-06-14T09:10:08;5.47;;;3.65;;
78895;SDS011;68284;59.124;37.910;2023-06-14T09:12:38;5.60;;;4.05;;
78895;SDS011;68284;59.124;37.910;2023-06-14T09:15:06;6.45;;;4.25;;
78895;SDS011;68284;59.124;37.910;2023-06-14T09:17:38;8.07;;;4.30;;
78895;SDS011;68284;59.124;37.910;2023-06-14T09:20:05;7.47;;;3.97;;
78895;SDS011;68284;59.124;37.910;2023-06-14T09:22:35;4.28;;;3.40;;
78895;SDS011;68284;59.124;37.910;2023-06-14T09:25:05;10.38;;;4.22;;
78895;SDS011;68284;59.124;37.910;2023-06-14T09:27:51;9.43;;;3.88;;
78895;SDS011;68284;59.124;37.910;2023-06-14T09:30:19;12.30;;;4.50;;
78895;SDS011;68284;59.124;37.910;2023-06-14T09:32:46;9.90;;;4.32;;
78895;SDS011;68284;59.124;37.910;2023-06-14T09:35:14;7.97;;;4.35;;
78895;SDS011;68284;59.124;37.910;2023-06-14T09:37:46;6.65;;;4.18;;
78895;SDS011;68284;59.124;37.910;2023-06-14T09:40:17;9.10;;;4.80;;
78895;SDS011;68284;59.124;37.910;2023-06-14T09:42:46;8.10;;;4.07;;
78895;SDS011;68284;59.124;37.910;2023-06-14T09:45:13;5.78;;;3.40;;
78895;SDS011;68284;59.124;37.910;2023-06-14T09:47:46;9.02;;;3.75;;
78895;SDS011;68284;59.124;37.910;2023-06-14T09:50:33;4.68;;;3.50;;
78895;SDS011;68284;59.124;37.910;2023-06-14T09:53:07;4.97;;;3.92;;
78895;SDS011;68284;59.124;37.910;2023-06-14T09:55:54;8.57;;;4.15;;
78895;SDS011;68284;59.124;37.910;2023-06-14T09:58:23;14.30;;;6.65;;
78895;SDS011;68284;59.124;37.910;2023-06-14T10:04:03;6.68;;;3.58;;
78895;SDS011;68284;59.124;37.910;2023-06-14T10:06:31;5.50;;;2.75;;
78895;SDS011;68284;59.124;37.910;2023-06-14T10:09:16;4.85;;;3.20;;
78895;SDS011;68284;59.124;37.910;2023-06-14T10:11:43;5.10;;;3.30;;
78895;SDS011;68284;59.124;37.910;2023-06-14T10:14:11;7.38;;;3.78;;
78895;SDS011;68284;59.124;37.910;2023-06-14T10:16:48;6.82;;;3.60;;
78895;SDS011;68284;59.124;37.910;2023-06-14T10:19:37;3.88;;;3.05;;
78895;SDS011;68284;59.124;37.910;2023-06-14T10:22:30;5.88;;;3.47;;
78895;SDS011;68284;59.124;37.910;2023-06-14T10:25:01;4.80;;;2.85;;
78895;SDS011;68284;59.124;37.910;2023-06-14T10:27:46;2.72;;;2.53;;
78895;SDS011;68284;59.124;37.910;2023-06-14T10:30:14;4.65;;;3.22;;
78895;SDS011;68284;59.124;37.910;2023-06-14T10:35:29;5.75;;;3.13;;
78895;SDS011;68284;59.124;37.910;2023-06-14T10:37:56;6.00;;;3.33;;
78895;SDS011;68284;59.124;37.910;2023-06-14T10:40:52;6.57;;;3.15;;
78895;SDS011;68284;59.124;37.910;2023-06-14T10:47:00;6.50;;;2.85;;
78895;SDS011;68284;59.124;37.910;2023-06-14T10:49:42;7.30;;;3.22;;
78895;SDS011;68284;59.124;37.910;2023-06-14T10:52:11;3.67;;;3.22;;
78895;SDS011;68284;59.124;37.910;2023-06-14T10:57:49;8.13;;;3.13;;
78895;SDS011;68284;59.124;37.910;2023-06-14T11:00:20;6.07;;;2.88;;
78895;SDS011;68284;59.124;37.910;2023-06-14T11:06:06;3.42;;;2.92;;
78895;SDS011;68284;59.124;37.910;2023-06-14T11:11:48;4.55;;;2.83;;
78895;SDS011;68284;59.124;37.910;2023-06-14T11:14:16;3.50;;;3.10;;
78895;SDS011;68284;59.124;37.910;2023-06-14T11:16:47;6.63;;;2.88;;
78895;SDS011;68284;59.124;37.910;2023-06-14T11:19:14;4.75;;;2.90;;
78895;SDS011;68284;59.124;37.910;2023-06-14T11:21:43;5.63;;;3.28;;
78895;SDS011;68284;59.124;37.910;2023-06-14T11:24:13;5.53;;;3.70;;
78895;SDS011;68284;59.124;37.910;2023-06-14T11:26:40;5.63;;;3.28;;
78895;SDS011;68284;59.124;37.910;2023-06-14T11:29:06;4.63;;;3.55;;
78895;SDS011;68284;59.124;37.910;2023-06-14T11:31:35;6.75;;;3.53;;
78895;SDS011;68284;59.124;37.910;2023-06-14T11:34:01;4.65;;;3.55;;
78895;SDS011;68284;59.124;37.910;2023-06-14T11:36:46;5.68;;;3.65;;
78895;SDS011;68284;59.124;37.910;2023-06-14T11:39:32;21.55;;;4.45;;
78895;SDS011;68284;59.124;37.910;2023-06-14T11:41:58;4.38;;;2.45;;
78895;SDS011;68284;59.124;37.910;2023-06-14T11:44:45;5.50;;;3.13;;
78895;SDS011;68284;59.124;37.910;2023-06-14T11:47:12;7.03;;;4.38;;
78895;SDS011;68284;59.124;37.910;2023-06-14T11:52:43;6.72;;;3.92;;
78895;SDS011;68284;59.124;37.910;2023-06-14T11:55:09;4.22;;;3.35;;
78895;SDS011;68284;59.124;37.910;2023-06-14T11:57:36;5.20;;;3.15;;
78895;SDS011;68284;59.124;37.910;2023-06-14T12:00:06;6.90;;;3.30;;
78895;SDS011;68284;59.124;37.910;2023-06-14T12:02:42;6.25;;;3.25;;
78895;SDS011;68284;59.124;37.910;2023-06-14T12:05:27;5.40;;;4.00;;
78895;SDS011;68284;59.124;37.910;2023-06-14T12:08:00;8.60;;;3.90;;
78895;SDS011;68284;59.124;37.910;2023-06-14T12:10:28;6.75;;;4.75;;
78895;SDS011;68284;59.124;37.910;2023-06-14T12:16:17;6.90;;;3.58;;
78895;SDS011;68284;59.124;37.910;2023-06-14T12:18:43;7.60;;;4.20;;
78895;SDS011;68284;59.124;37.910;2023-06-14T12:21:47;6.60;;;4.35;;
78895;SDS011;68284;59.124;37.910;2023-06-14T12:24:14;4.90;;;3.90;;
78895;SDS011;68284;59.124;37.910;2023-06-14T12:26:41;5.78;;;3.78;;
78895;SDS011;68284;59.124;37.910;2023-06-14T12:29:08;7.00;;;3.20;;
78895;SDS011;68284;59.124;37.910;2023-06-14T12:31:34;6.70;;;3.47;;
78895;SDS011;68284;59.124;37.910;2023-06-14T12:34:19;4.60;;;3.28;;
78895;SDS011;68284;59.124;37.910;2023-06-14T12:36:47;7.38;;;3.72;;
78895;SDS011;68284;59.124;37.910;2023-06-14T12:39:33;6.90;;;3.70;;
78895;SDS011;68284;59.124;37.910;2023-06-14T12:42:19;5.75;;;3.90;;
78895;SDS011;68284;59.124;37.910;2023-06-14T12:44:45;6.50;;;3.53;;
78895;SDS011;68284;59.124;37.910;2023-06-14T12:47:11;5.03;;;3.15;;
78895;SDS011;68284;59.124;37.910;2023-06-14T12:49:39;5.82;;;3.17;;
78895;SDS011;68284;59.124;37.910;2023-06-14T12:52:24;9.15;;;3.55;;
78895;SDS011;68284;59.124;37.910;2023-06-14T12:55:08;4.00;;;3.15;;
78895;SDS011;68284;59.124;37.910;2023-06-14T12:57:37;4.47;;;3.28;;
78895;SDS011;68284;59.124;37.910;2023-06-14T13:00:42;3.75;;;3.13;;
78895;SDS011;68284;59.124;37.910;2023-06-14T13:03:28;4.70;;;3.53;;
78895;SDS011;68284;59.124;37.910;2023-06-14T13:06:13;6.28;;;3.47;;
78895;SDS011;68284;59.124;37.910;2023-06-14T13:08:58;7.18;;;3.33;;
78895;SDS011;68284;59.124;37.910;2023-06-14T13:11:27;12.68;;;3.33;;
78895;SDS011;68284;59.124;37.910;2023-06-14T13:13:53;4.10;;;3.28;;
78895;SDS011;68284;59.124;37.910;2023-06-14T13:16:24;4.32;;;2.97;;
78895;SDS011;68284;59.124;37.910;2023-06-14T13:18:54;3.53;;;3.03;;
78895;SDS011;68284;59.124;37.910;2023-06-14T13:21:23;3.03;;;2.72;;
78895;SDS011;68284;59.124;37.910;2023-06-14T13:23:49;3.17;;;2.85;;
78895;SDS011;68284;59.124;37.910;2023-06-14T13:26:16;5.60;;;3.45;;
78895;SDS011;68284;59.124;37.910;2023-06-14T13:28:44;8.00;;;3.63;;
78895;SDS011;68284;59.124;37.910;2023-06-14T13:31:11;6.78;;;3.38;;
78895;SDS011;68284;59.124;37.910;2023-06-14T13:33:56;4.15;;;3.35;;
78895;SDS011;68284;59.124;37.910;2023-06-14T13:36:23;5.22;;;3.30;;
78895;SDS011;68284;59.124;37.910;2023-06-14T13:38:50;3.58;;;3.17;;
78895;SDS011;68284;59.124;37.910;2023-06-14T13:41:18;5.18;;;3.40;;
78895;SDS011;68284;59.124;37.910;2023-06-14T13:43:45;5.65;;;3.22;;
78895;SDS011;68284;59.124;37.910;2023-06-14T13:49:34;6.88;;;4.00;;
78895;SDS011;68284;59.124;37.910;2023-06-14T13:52:28;8.73;;;4.82;;
78895;SDS011;68284;59.124;37.910;2023-06-14T13:55:31;9.52;;;5.28;;
78895;SDS011;68284;59.124;37.910;2023-06-14T13:58:06;8.75;;;4.07;;
78895;SDS011;68284;59.124;37.910;2023-06-14T14:01:05;10.50;;;3.80;;
78895;SDS011;68284;59.124;37.910;2023-06-14T14:04:12;7.00;;;5.05;;
78895;SDS011;68284;59.124;37.910;2023-06-14T14:06:59;7.80;;;4.70;;
78895;SDS011;68284;59.124;37.910;2023-06-14T14:09:41;6.07;;;3.58;;
78895;SDS011;68284;59.124;37.910;2023-06-14T14:12:09;4.35;;;3.33;;
78895;SDS011;68284;59.124;37.910;2023-06-14T14:14:37;7.47;;;4.05;;
78895;SDS011;68284;59.124;37.910;2023-06-14T14:17:03;3.55;;;3.20;;
78895;SDS011;68284;59.124;37.910;2023-06-14T14:19:30;4.47;;;3.35;;
78895;SDS011;68284;59.124;37.910;2023-06-14T14:21:57;7.60;;;3.60;;
78895;SDS011;68284;59.124;37.910;2023-06-14T14:27:10;6.65;;;3.95;;
78895;SDS011;68284;59.124;37.910;2023-06-14T14:29:56;6.53;;;3.55;;
78895;SDS011;68284;59.124;37.910;2023-06-14T14:38:26;6.82;;;3.47;;
78895;SDS011;68284;59.124;37.910;2023-06-14T14:41:02;3.85;;;3.33;;
78895;SDS011;68284;59.124;37.910;2023-06-14T14:43:37;8.35;;;3.47;;
78895;SDS011;68284;59.124;37.910;2023-06-14T14:46:07;5.32;;;2.97;;
78895;SDS011;68284;59.124;37.910;2023-06-14T14:48:55;3.40;;;2.92;;
78895;SDS011;68284;59.124;37.910;2023-06-14T14:51:40;5.03;;;3.22;;
78895;SDS011;68284;59.124;37.910;2023-06-14T14:56:54;4.63;;;3.45;;
78895;SDS011;68284;59.124;37.910;2023-06-14T14:59:21;5.50;;;3.03;;
78895;SDS011;68284;59.124;37.910;2023-06-14T15:02:06;4.88;;;3.47;;
78895;SDS011;68284;59.124;37.910;2023-06-14T15:04:32;4.20;;;3.25;;
78895;SDS011;68284;59.124;37.910;2023-06-14T15:07:02;3.45;;;3.15;;
78895;SDS011;68284;59.124;37.910;2023-06-14T15:09:30;3.78;;;3.33;;
78895;SDS011;68284;59.124;37.910;2023-06-14T15:12:34;4.35;;;3.58;;
78895;SDS011;68284;59.124;37.910;2023-06-14T15:15:04;5.05;;;3.33;;
78895;SDS011;68284;59.124;37.910;2023-06-14T15:18:05;3.63;;;3.03;;
78895;SDS011;68284;59.124;37.910;2023-06-14T15:23:20;7.50;;;3.92;;
78895;SDS011;68284;59.124;37.910;2023-06-14T15:26:07;6.18;;;3.40;;
78895;SDS011;68284;59.124;37.910;2023-06-14T15:28:33;5.68;;;3.65;;
78895;SDS011;68284;59.124;37.910;2023-06-14T15:31:00;3.42;;;3.03;;
78895;SDS011;68284;59.124;37.910;2023-06-14T15:33:52;4.45;;;3.70;;
78895;SDS011;68284;59.124;37.910;2023-06-14T15:36:36;4.72;;;3.15;;
78895;SDS011;68284;59.124;37.910;2023-06-14T15:39:03;5.20;;;3.53;;
78895;SDS011;68284;59.124;37.910;2023-06-14T15:41:30;4.55;;;3.67;;
78895;SDS011;68284;59.124;37.910;2023-06-14T15:43:59;3.78;;;3.30;;
78895;SDS011;68284;59.124;37.910;2023-06-14T15:46:27;4.38;;;3.80;;
78895;SDS011;68284;59.124;37.910;2023-06-14T15:48:53;5.07;;;3.63;;
78895;SDS011;68284;59.124;37.910;2023-06-14T15:51:39;6.63;;;3.30;;
78895;SDS011;68284;59.124;37.910;2023-06-14T15:54:06;4.07;;;3.58;;
78895;SDS011;68284;59.124;37.910;2023-06-14T15:56:34;6.93;;;3.67;;
78895;SDS011;68284;59.124;37.910;2023-06-14T15:59:00;7.53;;;3.88;;
78895;SDS011;68284;59.124;37.910;2023-06-14T16:01:27;4.18;;;3.42;;
78895;SDS011;68284;59.124;37.910;2023-06-14T16:03:54;7.55;;;4.20;;
78895;SDS011;68284;59.124;37.910;2023-06-14T16:06:26;6.97;;;4.13;;
78895;SDS011;68284;59.124;37.910;2023-06-14T16:08:58;3.75;;;3.45;;
78895;SDS011;68284;59.124;37.910;2023-06-14T16:11:24;5.53;;;3.63;;
78895;SDS011;68284;59.124;37.910;2023-06-14T16:14:15;4.68;;;3.75;;
78895;SDS011;68284;59.124;37.910;2023-06-14T16:17:09;4.25;;;3.38;;
78895;SDS011;68284;59.124;37.910;2023-06-14T16:19:44;5.55;;;3.75;;
78895;SDS011;68284;59.124;37.910;2023-06-14T16:25:20;5.85;;;3.65;;
78895;SDS011;68284;59.124;37.910;2023-06-14T16:27:47;4.55;;;3.60;;
78895;SDS011;68284;59.124;37.910;2023-06-14T16:30:32;6.85;;;4.18;;
78895;SDS011;68284;59.124;37.910;2023-06-14T16:32:58;4.00;;;3.60;;
78895;SDS011;68284;59.124;37.910;2023-06-14T16:35:25;3.95;;;3.53;;
78895;SDS011;68284;59.124;37.910;2023-06-14T16:38:04;6.95;;;4.03;;